Time;durP1;ratioP1;P1;durP2;ratioP2;P2;SDS_P1;SDS_P2;PMS_P1;PMS_P2;Temp;Humidity;BMP_temperature;BMP_pressure;BME280_temperature;BME280_humidity;BME280_pressure;Samples;Min_cycle;Max_cycle;Signal;HPM_P1;HPM_P2
2021/03/08 00:01:36;;;;;;;;;;;;;;;4.25;54.70;99860.90;1686824;84;20377;-59
2021/03/08 00:04:04;;;;;;;;;;;;;;;4.22;54.31;99846.85;1687275;85;20418;-59
2021/03/08 00:06:33;;;;;;;;;;;;;;;4.21;53.96;99846.47;1686912;85;20277;-59
2021/03/08 00:09:01;;;;;;;;;;;;;;;4.18;54.24;99835.00;1686870;85;20443;-59
2021/03/08 00:11:28;;;;;;;;;;;;;;;4.17;54.31;99829.47;1686976;85;20158;-59
2021/03/08 00:13:56;;;;;;;;;;;;;;;4.15;54.77;99826.95;1686769;85;20139;-59
2021/03/08 00:16:24;;;;;;;;;;;;;;;4.14;55.09;99821.41;1686859;85;20179;-59
2021/03/08 00:18:52;;;;;;;;;;;;;;;4.12;55.03;99821.10;1686351;85;20308;-59
2021/03/08 00:21:19;;;;;;;;;;;;;;;4.10;54.72;99810.86;1687156;85;20139;-59
2021/03/08 00:23:47;;;;;;;;;;;;;;;4.09;54.69;99809.64;1686501;85;20151;-59
2021/03/08 00:26:15;;;;;;;;;;;;;;;4.09;55.50;99810.47;1687285;85;20156;-60
2021/03/08 00:28:42;;;;;;;;;;;;;;;4.08;56.34;99807.97;1691208;84;20170;-59
2021/03/08 00:31:10;;;;;;;;;;;;;;;4.09;56.96;99808.34;1699893;84;20143;-59
2021/03/08 00:33:37;;;;;;;;;;;;;;;4.07;57.02;99806.29;1700206;84;20229;-59
2021/03/08 00:36:05;;;;;;;;;;;;;;;4.07;56.89;99811.45;1699777;84;20143;-59
2021/03/08 00:38:33;;;;;;;;;;;;;;;4.06;56.37;99807.20;1700351;84;20150;-59
2021/03/08 00:41:00;;;;;;;;;;;;;;;4.06;55.97;99799.46;1699517;84;20186;-59
2021/03/08 00:43:27;;;;;;;;;;;;;;;4.03;55.64;99799.60;1699708;84;20332;-59
2021/03/08 00:45:55;;;;;;;;;;;;;;;4.03;55.54;99793.16;1672366;84;20170;-59
2021/03/08 00:48:23;;;;;;;;;;;;;;;4.03;55.85;99791.87;1699976;84;20355;-59
2021/03/08 00:50:50;;;;;;;;;;;;;;;4.01;54.97;99778.21;1700497;84;20178;-59
2021/03/08 00:53:20;;;;;;;;;;;;;;;4.00;55.84;99782.53;1699802;84;20697;-60
2021/03/08 00:55:49;;;;;;;;;;;;;;;4.00;56.28;99779.95;1700348;84;20281;-60
2021/03/08 00:58:16;;;;;;;;;;;;;;;4.00;56.27;99777.83;1699667;84;20278;-60
2021/03/08 01:00:44;;;;;;;;;;;;;;;4.00;55.93;99780.41;1700328;84;20166;-60
2021/03/08 01:03:12;;;;;;;;;;;;;;;4.00;57.13;99778.66;1699804;84;20229;-60
2021/03/08 01:05:41;;;;;;;;;;;;;;;4.01;58.08;99771.31;1699996;84;20162;-60
2021/03/08 01:08:27;;;;;;;;;;;;;;;4.02;58.13;99776.02;1700068;84;20443;-61
2021/03/08 01:10:55;;;;;;;;;;;;;;;4.00;57.24;99768.80;1700467;84;20170;-60
2021/03/08 01:13:25;;;;;;;;;;;;;;;4.00;57.02;99768.80;1699532;84;20700;-60
2021/03/08 01:15:53;;;;;;;;;;;;;;;3.99;56.55;99752.50;1700253;84;20183;-60
2021/03/08 01:18:22;;;;;;;;;;;;;;;3.98;56.50;99750.83;1699858;84;20187;-60
2021/03/08 01:20:50;;;;;;;;;;;;;;;3.98;57.02;99756.44;1699773;84;20158;-60
2021/03/08 01:23:18;;;;;;;;;;;;;;;3.97;57.94;99745.28;1699185;84;20202;-60
2021/03/08 01:25:45;;;;;;;;;;;;;;;3.98;58.38;99744.38;1700469;84;20190;-60
2021/03/08 01:28:13;;;;;;;;;;;;;;;3.99;58.05;99747.80;1699698;84;20195;-61
2021/03/08 01:30:42;;;;;;;;;;;;;;;3.99;58.75;99747.80;1699955;84;20193;-60
2021/03/08 01:33:11;;;;;;;;;;;;;;;3.99;58.69;99743.92;1699701;84;20190;-60
2021/03/08 01:35:39;;;;;;;;;;;;;;;4.00;59.76;99750.75;1700234;84;20154;-60
2021/03/08 01:38:07;;;;;;;;;;;;;;;4.00;60.23;99745.14;1699912;84;20154;-60
2021/03/08 01:40:37;;;;;;;;;;;;;;;4.00;60.76;99755.91;1700304;84;20174;-60
2021/03/08 01:43:05;;;;;;;;;;;;;;;4.01;60.83;99749.39;1700042;84;20143;-60
2021/03/08 01:45:32;;;;;;;;;;;;;;;4.01;60.95;99749.84;1700212;84;20447;-60
2021/03/08 01:48:00;;;;;;;;;;;;;;;4.01;60.96;99755.00;1700387;84;20249;-60
2021/03/08 01:50:34;;;;;;;;;;;;;;;4.02;61.04;99748.94;1699912;84;20304;-60
2021/03/08 01:53:02;;;;;;;;;;;;;;;4.01;60.94;99747.27;1699683;84;20170;-60
2021/03/08 01:55:30;;;;;;;;;;;;;;;3.99;59.76;99742.19;1700280;84;20162;-60
2021/03/08 01:57:58;;;;;;;;;;;;;;;3.97;59.61;99728.98;1700332;84;20178;-60
2021/03/08 02:00:26;;;;;;;;;;;;;;;3.97;60.15;99734.14;1699807;84;20347;-60
2021/03/08 02:03:12;;;;;;;;;;;;;;;3.94;60.12;99737.24;1699677;84;20169;-60
2021/03/08 02:05:42;;;;;;;;;;;;;;;3.93;59.67;99730.41;1699816;84;20284;-60
2021/03/08 02:08:11;;;;;;;;;;;;;;;3.92;60.07;99735.19;1699966;84;20400;-60
2021/03/08 02:10:41;;;;;;;;;;;;;;;3.93;60.63;99732.16;1700508;84;20150;-60
2021/03/08 02:13:31;;;;;;;;;;;;;;;3.92;61.18;99736.48;1699927;84;20431;-60
2021/03/08 02:16:14;;;;;;;;;;;;;;;3.93;61.38;99740.73;1648319;84;20359;-60
2021/03/08 02:19:02;;;;;;;;;;;;;;;3.93;60.78;99739.44;1699687;84;20190;-60
2021/03/08 02:21:50;;;;;;;;;;;;;;;3.93;60.65;99738.15;1700271;84;20190;-60
2021/03/08 02:24:21;;;;;;;;;;;;;;;3.93;60.61;99739.44;1700299;84;20186;-60
2021/03/08 02:26:53;;;;;;;;;;;;;;;3.92;59.86;99726.62;1699809;84;20198;-60
2021/03/08 02:29:36;;;;;;;;;;;;;;;3.91;58.77;99735.26;1700504;84;20185;-60
2021/03/08 02:32:07;;;;;;;;;;;;;;;3.90;58.32;99736.16;1700476;84;20423;-60
2021/03/08 02:34:44;;;;;;;;;;;;;;;3.88;57.30;99734.95;1700238;84;20201;-60
2021/03/08 02:37:21;;;;;;;;;;;;;;;3.86;57.56;99726.45;1699654;84;20139;-60
2021/03/08 02:39:51;;;;;;;;;;;;;;;3.86;57.59;99731.61;1699299;84;20182;-60
2021/03/08 02:42:21;;;;;;;;;;;;;;;3.85;57.28;99736.38;1699847;84;20280;-60
2021/03/08 02:44:49;;;;;;;;;;;;;;;3.84;56.87;99742.44;1699867;84;20194;-60
2021/03/08 02:47:17;;;;;;;;;;;;;;;3.85;57.43;99742.82;1699766;84;20170;-60
2021/03/08 02:49:46;;;;;;;;;;;;;;;3.84;57.32;99738.58;1700039;84;20202;-60
2021/03/08 02:52:13;;;;;;;;;;;;;;;3.83;57.11;99730.45;1671836;84;20182;-60
2021/03/08 02:54:43;;;;;;;;;;;;;;;3.83;57.60;99731.75;1699816;84;20190;-60
2021/03/08 02:57:10;;;;;;;;;;;;;;;3.83;57.38;99728.33;1699874;84;20195;-60
2021/03/08 02:59:42;;;;;;;;;;;;;;;3.82;56.96;99726.66;1700166;84;20159;-60
2021/03/08 03:02:10;;;;;;;;;;;;;;;3.80;56.42;99720.29;1699726;84;20156;-60
2021/03/08 03:04:38;;;;;;;;;;;;;;;3.79;56.34;99728.92;1700355;84;20158;-60
2021/03/08 03:07:06;;;;;;;;;;;;;;;3.77;55.94;99715.73;1700009;84;20171;-60
2021/03/08 03:09:34;;;;;;;;;;;;;;;3.76;55.85;99717.47;1684007;84;20181;-60
2021/03/08 03:12:01;;;;;;;;;;;;;;;3.75;55.65;99720.95;1700260;84;20169;-60
2021/03/08 03:14:29;;;;;;;;;;;;;;;3.71;55.34;99722.00;1699866;84;20157;-60
2021/03/08 03:17:03;;;;;;;;;;;;;;;3.70;55.18;99717.75;1700150;84;20185;-60
2021/03/08 03:19:32;;;;;;;;;;;;;;;3.67;55.22;99715.31;1700279;84;20198;-60
2021/03/08 03:22:01;;;;;;;;;;;;;;;3.64;55.09;99712.88;1700199;84;20190;-60
2021/03/08 03:24:29;;;;;;;;;;;;;;;3.61;54.92;99720.30;1699929;84;20161;-60
2021/03/08 03:26:56;;;;;;;;;;;;;;;3.58;54.79;99709.30;1700075;84;20423;-60
2021/03/08 03:29:23;;;;;;;;;;;;;;;3.54;54.72;99710.34;1669336;85;20183;-61
2021/03/08 03:31:51;;;;;;;;;;;;;;;3.50;54.69;99711.37;1689401;84;20266;-60
2021/03/08 03:34:19;;;;;;;;;;;;;;;3.46;54.66;99712.00;1688748;84;20179;-60
2021/03/08 03:36:47;;;;;;;;;;;;;;;3.42;54.67;99710.47;1688800;84;20260;-60
2021/03/08 03:39:14;;;;;;;;;;;;;;;3.40;54.95;99716.59;1665105;85;20162;-60
2021/03/08 03:41:41;;;;;;;;;;;;;;;3.36;54.90;99717.18;1688739;84;20174;-60
2021/03/08 03:44:09;;;;;;;;;;;;;;;3.33;54.89;99720.34;1689275;84;20233;-60
2021/03/08 03:46:41;;;;;;;;;;;;;;;3.31;55.08;99711.40;1688998;84;20166;-60
2021/03/08 03:49:13;;;;;;;;;;;;;;;3.28;55.30;99714.95;1689377;84;20155;-60
2021/03/08 03:51:41;;;;;;;;;;;;;;;3.27;55.18;99715.85;1688767;85;20139;-60
2021/03/08 03:54:09;;;;;;;;;;;;;;;3.24;55.01;99711.28;1689317;84;20226;-60
2021/03/08 03:56:55;;;;;;;;;;;;;;;3.21;54.97;99714.83;1688917;85;20174;-60
2021/03/08 03:59:24;;;;;;;;;;;;;;;3.18;54.98;99705.95;1689413;84;20186;-60
2021/03/08 04:01:58;;;;;;;;;;;;;;;3.16;54.94;99709.05;1688795;84;20261;-60
2021/03/08 04:04:33;;;;;;;;;;;;;;;3.13;54.96;99712.20;1689528;84;20207;-60
2021/03/08 04:07:03;;;;;;;;;;;;;;;3.10;54.98;99705.91;1689249;84;20143;-60
2021/03/08 04:09:32;;;;;;;;;;;;;;;3.06;54.99;99706.48;1689431;85;20166;-60
2021/03/08 04:12:00;;;;;;;;;;;;;;;3.04;55.01;99710.87;1665635;85;20339;-60
2021/03/08 04:14:28;;;;;;;;;;;;;;;3.01;55.03;99712.28;1689059;84;20211;-60
2021/03/08 04:16:57;;;;;;;;;;;;;;;2.98;55.11;99711.13;1689181;84;20282;-60
2021/03/08 04:19:28;;;;;;;;;;;;;;;2.95;55.16;99710.81;1688842;84;20206;-60
2021/03/08 04:21:58;;;;;;;;;;;;;;;2.92;55.19;99710.95;1688885;85;20135;-60
2021/03/08 04:24:26;;;;;;;;;;;;;;;2.90;55.24;99710.63;1688993;84;20139;-60
2021/03/08 04:26:53;;;;;;;;;;;;;;;2.87;55.29;99707.73;1688969;84;20155;-60
2021/03/08 04:29:20;;;;;;;;;;;;;;;2.85;55.36;99704.84;1690597;84;20179;-60
2021/03/08 04:31:47;;;;;;;;;;;;;;;2.84;55.46;99707.03;1703556;84;20123;-60
2021/03/08 04:34:15;;;;;;;;;;;;;;;2.82;55.47;99695.96;1704261;84;20189;-60
2021/03/08 04:36:42;;;;;;;;;;;;;;;2.81;55.58;99693.00;1668440;84;20261;-59
2021/03/08 04:39:10;;;;;;;;;;;;;;;2.79;55.58;99694.80;1704366;84;20245;-59
2021/03/08 04:41:37;;;;;;;;;;;;;;;2.79;55.75;99695.64;1703802;84;20177;-59
2021/03/08 04:44:07;;;;;;;;;;;;;;;2.79;55.81;99694.36;1704115;84;20170;-59
2021/03/08 04:46:35;;;;;;;;;;;;;;;2.79;55.76;99704.65;1691919;84;20181;-59
2021/03/08 04:49:04;;;;;;;;;;;;;;;2.79;56.00;99693.06;1703951;84;20277;-59
2021/03/08 04:51:32;;;;;;;;;;;;;;;2.79;56.16;99695.64;1703656;84;20153;-59
2021/03/08 04:54:01;;;;;;;;;;;;;;;2.79;56.72;99696.09;1704080;84;20157;-59
2021/03/08 04:56:32;;;;;;;;;;;;;;;2.79;57.12;99696.92;1703890;84;20366;-59
2021/03/08 04:59:00;;;;;;;;;;;;;;;2.79;57.07;99698.66;1704234;84;20174;-59
2021/03/08 05:01:29;;;;;;;;;;;;;;;2.80;56.93;99705.48;1703956;84;20138;-59
2021/03/08 05:03:56;;;;;;;;;;;;;;;2.80;56.87;99706.77;1704231;84;20150;-60
2021/03/08 05:06:24;;;;;;;;;;;;;;;2.80;56.89;99708.06;1703671;84;20157;-59
2021/03/08 05:08:52;;;;;;;;;;;;;;;2.80;57.17;99696.02;1703666;84;20157;-60
2021/03/08 05:11:19;;;;;;;;;;;;;;;2.81;57.04;99707.16;1703567;84;20142;-59
2021/03/08 05:13:48;;;;;;;;;;;;;;;2.81;57.15;99696.86;1680132;84;20186;-59
2021/03/08 05:16:16;;;;;;;;;;;;;;;2.81;57.60;99710.56;1703626;84;20170;-59
2021/03/08 05:18:45;;;;;;;;;;;;;;;2.83;57.72;99714.36;1704022;84;20166;-59
2021/03/08 05:21:13;;;;;;;;;;;;;;;2.84;57.85;99714.75;1703575;84;20148;-59
2021/03/08 05:23:41;;;;;;;;;;;;;;;2.86;57.92;99712.95;1704046;84;20154;-59
2021/03/08 05:26:09;;;;;;;;;;;;;;;2.87;58.02;99712.05;1703581;84;20178;-59
2021/03/08 05:28:37;;;;;;;;;;;;;;;2.88;58.09;99705.99;1669110;84;20293;-59
2021/03/08 05:31:04;;;;;;;;;;;;;;;2.92;58.00;99702.39;1701180;84;20166;-59
2021/03/08 05:33:32;;;;;;;;;;;;;;;2.94;57.77;99710.87;1700319;84;20419;-59
2021/03/08 05:35:59;;;;;;;;;;;;;;;2.97;57.86;99710.75;1700352;84;20269;-59
2021/03/08 05:38:28;;;;;;;;;;;;;;;2.99;57.95;99707.66;1700027;84;20169;-59
2021/03/08 05:41:16;;;;;;;;;;;;;;;3.01;57.57;99712.28;1699780;84;20696;-59
2021/03/08 05:43:46;;;;;;;;;;;;;;;3.05;57.43;99718.14;1699815;84;20158;-59
2021/03/08 05:46:18;;;;;;;;;;;;;;;3.07;57.15;99713.31;1684384;84;20274;-59
2021/03/08 05:49:14;;;;;;;;;;;;;;;3.10;57.63;99720.91;1699232;84;20158;-60
2021/03/08 05:52:16;;;;;;;;;;;;;;;3.13;57.58;99714.33;1698973;84;20162;-60
2021/03/08 05:55:08;;;;;;;;;;;;;;;3.16;57.37;99709.50;1699366;84;20467;-60
2021/03/08 05:58:07;;;;;;;;;;;;;;;3.21;58.08;99723.01;1699544;84;20174;-60
2021/03/08 06:00:50;;;;;;;;;;;;;;;3.23;58.01;99729.77;1700197;84;20157;-60
2021/03/08 06:03:56;;;;;;;;;;;;;;;3.27;57.41;99726.60;1691614;84;20199;-60
2021/03/08 06:06:52;;;;;;;;;;;;;;;3.29;57.15;99732.07;1700258;84;20175;-60
2021/03/08 06:09:25;;;;;;;;;;;;;;;3.34;57.17;99731.03;1700330;84;20162;-60
2021/03/08 06:11:59;;;;;;;;;;;;;;;3.38;57.16;99735.14;1699681;84;20162;-60
2021/03/08 06:14:36;;;;;;;;;;;;;;;3.41;56.89;99738.88;1700466;84;20380;-61
2021/03/08 06:17:03;;;;;;;;;;;;;;;3.43;56.68;99743.50;1700331;84;20392;-60
2021/03/08 06:19:31;;;;;;;;;;;;;;;3.46;56.73;99746.78;1700462;84;20269;-60
2021/03/08 06:21:58;;;;;;;;;;;;;;;3.49;56.67;99746.61;1699886;84;20449;-60
2021/03/08 06:24:26;;;;;;;;;;;;;;;3.51;56.69;99742.68;1672065;84;20367;-60
2021/03/08 06:26:54;;;;;;;;;;;;;;;3.55;57.37;99757.09;1700304;84;20178;-60
2021/03/08 06:29:22;;;;;;;;;;;;;;;3.58;57.48;99754.38;1699831;84;20178;-60
2021/03/08 06:31:50;;;;;;;;;;;;;;;3.60;57.86;99754.70;1688319;84;20163;-60
2021/03/08 06:34:18;;;;;;;;;;;;;;;3.62;57.56;99753.34;1686057;85;20435;-61
2021/03/08 06:36:45;;;;;;;;;;;;;;;3.65;57.40;99749.79;1687303;85;20187;-60
2021/03/08 06:39:13;;;;;;;;;;;;;;;3.67;57.32;99749.27;1686687;85;20154;-61
2021/03/08 06:41:40;;;;;;;;;;;;;;;3.69;57.51;99750.03;1687158;84;20163;-60
2021/03/08 06:44:08;;;;;;;;;;;;;;;3.70;57.95;99730.64;1686789;85;20409;-61
2021/03/08 06:46:35;;;;;;;;;;;;;;;3.74;59.21;99748.09;1687273;85;20405;-60
2021/03/08 06:49:03;;;;;;;;;;;;;;;3.75;59.19;99741.58;1687033;85;20437;-60
2021/03/08 06:51:30;;;;;;;;;;;;;;;3.78;59.88;99740.14;1687186;85;20468;-60
2021/03/08 06:53:58;;;;;;;;;;;;;;;3.82;60.83;99734.39;1687246;85;20234;-60
2021/03/08 06:56:26;;;;;;;;;;;;;;;3.84;60.86;99738.58;1686612;85;20419;-61
2021/03/08 06:59:08;;;;;;;;;;;;;;;3.87;61.29;99740.17;1687345;85;20171;-60
2021/03/08 07:01:36;;;;;;;;;;;;;;;3.90;61.40;99719.41;1687114;85;20202;-61
2021/03/08 07:04:14;;;;;;;;;;;;;;;3.93;61.79;99743.30;1683630;85;20182;-61
2021/03/08 07:06:42;;;;;;;;;;;;;;;3.94;61.40;99738.53;1687116;85;20155;-60
2021/03/08 07:09:11;;;;;;;;;;;;;;;3.97;61.12;99738.84;1686753;85;20167;-60
2021/03/08 07:11:38;;;;;;;;;;;;;;;4.00;61.00;99728.84;1687123;85;20290;-60
2021/03/08 07:14:16;;;;;;;;;;;;;;;4.02;61.15;99740.75;1686561;84;20229;-60
2021/03/08 07:16:43;;;;;;;;;;;;;;;4.05;61.23;99733.33;1686557;85;20192;-60
2021/03/08 07:19:11;;;;;;;;;;;;;;;4.07;61.82;99739.25;1686574;85;20167;-60
2021/03/08 07:21:38;;;;;;;;;;;;;;;4.09;61.90;99738.72;1687117;85;20200;-60
2021/03/08 07:24:14;;;;;;;;;;;;;;;4.11;61.91;99742.06;1662891;85;20168;-60
2021/03/08 07:26:50;;;;;;;;;;;;;;;4.12;61.53;99742.44;1686678;84;20388;-60
2021/03/08 07:29:18;;;;;;;;;;;;;;;4.14;61.48;99740.63;1687187;84;20123;-60
2021/03/08 07:31:48;;;;;;;;;;;;;;;4.15;60.62;99744.88;1698462;84;20201;-60
2021/03/08 07:34:17;;;;;;;;;;;;;;;4.15;60.03;99745.72;1700106;84;20178;-60
2021/03/08 07:36:47;;;;;;;;;;;;;;;4.18;59.93;99746.02;1703383;84;20162;-60
2021/03/08 07:39:18;;;;;;;;;;;;;;;4.20;60.67;99739.05;1702708;84;20292;-60
2021/03/08 07:42:00;;;;;;;;;;;;;;;4.24;61.25;99741.86;1703506;84;20169;-60
2021/03/08 07:44:29;;;;;;;;;;;;;;;4.25;60.96;99745.66;1704056;84;20181;-59
2021/03/08 07:46:58;;;;;;;;;;;;;;;4.27;60.38;99754.16;1703488;84;20166;-60
2021/03/08 07:49:34;;;;;;;;;;;;;;;4.29;60.33;99752.80;1703757;84;20728;-60
2021/03/08 07:52:07;;;;;;;;;;;;;;;4.31;61.29;99750.98;1703426;84;20158;-62
2021/03/08 07:54:58;;;;;;;;;;;;;;;4.31;58.00;99739.38;1685244;84;20212;-63
2021/03/08 07:57:27;;;;;;;;;;;;;;;4.02;55.78;99750.23;1690461;84;20241;-63
2021/03/08 07:59:55;;;;;;;;;;;;;;;3.58;56.06;99749.23;1735707;83;20175;-64
2021/03/08 08:02:23;;;;;;;;;;;;;;;3.26;56.82;99757.95;1722015;83;20158;-62
2021/03/08 08:04:52;;;;;;;;;;;;;;;3.07;57.37;99754.95;1709238;83;20217;-63
2021/03/08 08:07:19;;;;;;;;;;;;;;;2.94;57.74;99758.50;1670316;85;20276;-63
2021/03/08 08:09:46;;;;;;;;;;;;;;;2.88;58.22;99751.03;1683920;84;20234;-63
2021/03/08 08:12:28;;;;;;;;;;;;;;;2.82;58.37;99742.28;1695545;83;20186;-63
2021/03/08 08:14:54;;;;;;;;;;;;;;;2.77;58.64;99745.05;1690984;85;20170;-63
2021/03/08 08:17:22;;;;;;;;;;;;;;;2.78;58.87;99753.61;1707809;84;20285;-62
2021/03/08 08:19:49;;;;;;;;;;;;;;;2.79;59.02;99745.82;1674204;86;20174;-63
2021/03/08 08:22:21;;;;;;;;;;;;;;;2.85;59.11;99748.14;1668509;85;20204;-61
2021/03/08 08:24:49;;;;;;;;;;;;;;;2.91;58.95;99740.61;1701038;83;20211;-63
2021/03/08 08:27:16;;;;;;;;;;;;;;;2.97;58.78;99735.20;1721128;83;20162;-63
2021/03/08 08:29:46;;;;;;;;;;;;;;;2.98;58.69;99740.73;1693244;84;20251;-64
2021/03/08 08:32:13;;;;;;;;;;;;;;;2.97;58.84;99733.91;1695282;83;20190;-62
2021/03/08 08:34:45;;;;;;;;;;;;;;;2.99;59.00;99737.26;1716485;83;20180;-62
2021/03/08 08:37:26;;;;;;;;;;;;;;;3.01;58.96;99739.32;1696078;84;20180;-63
2021/03/08 08:39:57;;;;;;;;;;;;;;;3.05;59.11;99724.58;1696984;84;20188;-64
2021/03/08 08:42:26;;;;;;;;;;;;;;;3.08;58.84;99727.85;1689382;84;20224;-62
2021/03/08 08:44:55;;;;;;;;;;;;;;;3.11;58.80;99718.71;1708151;83;20319;-62
2021/03/08 08:47:34;;;;;;;;;;;;;;;3.14;58.65;99730.61;1691093;85;20257;-62
2021/03/08 08:50:05;;;;;;;;;;;;;;;3.17;58.63;99734.34;1707451;83;20186;-63
2021/03/08 08:52:52;;;;;;;;;;;;;;;3.21;58.51;99732.86;1691481;83;20448;-63
2021/03/08 08:55:36;;;;;;;;;;;;;;;3.23;58.48;99736.20;1720476;83;20160;-63
2021/03/08 08:58:25;;;;;;;;;;;;;;;3.28;58.63;99731.69;1669375;85;20200;-62
2021/03/08 09:01:46;;;;;;;;;;;;;;;3.35;58.66;99721.11;1677730;85;20443;-61
2021/03/08 09:04:07;;;;;;;;;;;;;;;3.41;58.62;99732.44;1684547;85;20182;-63
2021/03/08 09:07:00;;;;;;;;;;;;;;;3.48;58.40;99731.22;1676321;84;20427;-61
2021/03/08 09:09:35;;;;;;;;;;;;;;;3.54;58.32;99735.65;1708272;83;20229;-62
2021/03/08 09:12:09;;;;;;;;;;;;;;;3.58;58.19;99738.47;1690805;84;20202;-63
2021/03/08 09:14:47;;;;;;;;;;;;;;;3.57;57.87;99713.61;1706946;83;20148;-62
2021/03/08 09:17:31;;;;;;;;;;;;;;;3.54;57.89;99720.19;1699807;84;20185;-63
2021/03/08 09:20:03;;;;;;;;;;;;;;;3.53;58.18;99723.67;1687745;84;20440;-61
2021/03/08 09:22:31;;;;;;;;;;;;;;;3.60;58.06;99731.51;1714514;83;20175;-62
2021/03/08 09:25:11;;;;;;;;;;;;;;;3.67;57.99;99724.33;1699530;83;20167;-62
2021/03/08 09:27:45;;;;;;;;;;;;;;;3.69;57.84;99744.42;1693349;83;20123;-62
2021/03/08 09:30:17;;;;;;;;;;;;;;;3.72;57.49;99733.98;1713187;83;20136;-63
2021/03/08 09:32:58;;;;;;;;;;;;;;;3.73;57.09;99727.08;1713825;83;20450;-66
2021/03/08 09:35:28;;;;;;;;;;;;;;;3.68;57.43;99729.03;1705667;84;20180;-62
2021/03/08 09:37:56;;;;;;;;;;;;;;;3.67;57.65;99735.09;1715190;84;20353;-64
2021/03/08 09:40:26;;;;;;;;;;;;;;;3.70;57.48;99739.66;1714858;84;20242;-62
2021/03/08 09:42:54;;;;;;;;;;;;;;;3.69;57.50;99744.42;1713398;84;20220;-62
2021/03/08 09:45:33;;;;;;;;;;;;;;;3.66;57.35;99729.11;1710400;84;20176;-62
2021/03/08 09:48:03;;;;;;;;;;;;;;;3.59;57.40;99740.59;1704265;84;20411;-63
2021/03/08 09:50:34;;;;;;;;;;;;;;;3.51;57.44;99742.68;1689311;84;20175;-63
2021/03/08 09:53:02;;;;;;;;;;;;;;;3.44;57.65;99754.19;1700421;83;20444;-63
2021/03/08 09:55:34;;;;;;;;;;;;;;;3.39;57.85;99743.25;1705778;83;20168;-63
2021/03/08 09:58:18;;;;;;;;;;;;;;;3.31;58.15;99749.20;1695265;83;20286;-63
2021/03/08 10:00:52;;;;;;;;;;;;;;;3.26;58.49;99750.23;1704038;83;20449;-62
2021/03/08 10:03:16;;;;;;;;;;;;;;;3.28;58.74;99760.02;1710413;83;20177;-61
2021/03/08 10:05:53;;;;;;;;;;;;;;;3.29;58.75;99747.52;1714836;83;20267;-62
2021/03/08 10:08:21;;;;;;;;;;;;;;;3.31;58.63;99759.05;1711430;83;20183;-62
2021/03/08 10:10:52;;;;;;;;;;;;;;;3.27;58.65;99755.77;1711085;83;20267;-61
2021/03/08 10:13:21;;;;;;;;;;;;;;;3.21;58.98;99747.02;1680417;84;20167;-62
2021/03/08 10:15:54;;;;;;;;;;;;;;;3.14;59.10;99748.19;1691552;84;20182;-61
2021/03/08 10:18:27;;;;;;;;;;;;;;;3.10;59.46;99759.52;1692275;85;20164;-63
2021/03/08 10:20:56;;;;;;;;;;;;;;;3.05;59.79;99751.16;1711107;83;20572;-63
2021/03/08 10:23:26;;;;;;;;;;;;;;;3.04;59.89;99752.06;1707660;83;20166;-61
2021/03/08 10:26:05;;;;;;;;;;;;;;;3.01;60.08;99759.91;1710468;83;20184;-62
2021/03/08 10:28:42;;;;;;;;;;;;;;;3.00;60.31;99765.96;1712073;83;20267;-62
2021/03/08 10:31:23;;;;;;;;;;;;;;;2.97;60.56;99759.66;1706401;83;20237;-61
2021/03/08 10:33:55;;;;;;;;;;;;;;;2.94;60.69;99731.47;1711626;83;20184;-62
2021/03/08 10:36:24;;;;;;;;;;;;;;;2.92;60.98;99765.45;1706756;83;20353;-62
2021/03/08 10:38:53;;;;;;;;;;;;;;;2.89;61.15;99748.84;1707224;83;20256;-62
2021/03/08 10:41:21;;;;;;;;;;;;;;;2.85;61.40;99742.16;1711564;83;20209;-61
2021/03/08 10:43:49;;;;;;;;;;;;;;;2.78;61.77;99751.87;1717538;83;20180;-63
2021/03/08 10:46:17;;;;;;;;;;;;;;;2.73;62.28;99761.97;1702290;83;20160;-61
2021/03/08 10:48:55;;;;;;;;;;;;;;;2.69;62.63;99766.85;1718822;83;20148;-62
2021/03/08 10:51:24;;;;;;;;;;;;;;;2.66;62.91;99764.41;1691369;84;20189;-63
2021/03/08 10:54:13;;;;;;;;;;;;;;;2.62;63.28;99761.12;1677300;84;20204;-61
2021/03/08 10:56:43;;;;;;;;;;;;;;;2.56;63.49;99769.95;1686344;84;20196;-61
2021/03/08 10:59:24;;;;;;;;;;;;;;;2.42;61.89;99787.67;1687945;84;20270;-63
2021/03/08 11:02:04;;;;;;;;;;;;;;;2.26;61.28;99784.03;1697313;84;20288;-61
2021/03/08 11:04:33;;;;;;;;;;;;;;;2.08;60.05;99774.45;1702830;83;20206;-61
2021/03/08 11:07:03;;;;;;;;;;;;;;;1.93;59.92;99778.00;1718283;83;20204;-64
2021/03/08 11:09:33;;;;;;;;;;;;;;;1.86;59.31;99761.59;1702272;83;20452;-62
2021/03/08 11:12:01;;;;;;;;;;;;;;;1.81;59.00;99780.19;1703322;83;20180;-62
2021/03/08 11:14:28;;;;;;;;;;;;;;;1.78;58.90;99791.42;1717294;83;20814;-62
2021/03/08 11:16:58;;;;;;;;;;;;;;;1.73;57.92;99777.94;1715491;83;20160;-62
2021/03/08 11:19:28;;;;;;;;;;;;;;;1.68;57.03;99780.28;1710036;83;20234;-63
2021/03/08 11:22:07;;;;;;;;;;;;;;;1.61;57.10;99793.80;1712474;83;20220;-62
2021/03/08 11:24:44;;;;;;;;;;;;;;;1.58;56.73;99790.05;1707647;83;20221;-62
2021/03/08 11:27:17;;;;;;;;;;;;;;;1.58;56.55;99775.93;1712784;83;20186;-61
2021/03/08 11:29:59;;;;;;;;;;;;;;;1.58;56.22;99774.20;1716738;83;20220;-60
2021/03/08 11:32:29;;;;;;;;;;;;;;;1.58;55.48;99781.06;1702465;83;20309;-61
2021/03/08 11:34:59;;;;;;;;;;;;;;;1.58;55.67;99781.06;1714668;83;20534;-63
2021/03/08 11:37:28;;;;;;;;;;;;;;;1.59;55.17;99786.59;1705276;84;20155;-60
2021/03/08 11:39:58;;;;;;;;;;;;;;;1.56;54.85;99794.41;1717155;83;20675;-61
2021/03/08 11:42:26;;;;;;;;;;;;;;;1.53;55.29;99788.10;1701388;83;20190;-61
2021/03/08 11:44:53;;;;;;;;;;;;;;;1.51;55.43;99787.31;1715890;83;20166;-62
2021/03/08 11:50:11;;;;;;;;;;;;;;;1.51;55.95;99792.45;1713727;83;20171;-61
2021/03/08 11:52:38;;;;;;;;;;;;;;;1.55;56.02;99791.45;1713274;83;20157;-61
2021/03/08 11:55:07;;;;;;;;;;;;;;;1.56;56.00;99791.39;1702490;83;20143;-61
2021/03/08 11:57:35;;;;;;;;;;;;;;;1.58;56.12;99796.03;1722813;83;20168;-61
2021/03/08 12:00:06;;;;;;;;;;;;;;;1.61;56.31;99792.52;1703025;83;20368;-61
2021/03/08 12:02:35;;;;;;;;;;;;;;;1.63;56.79;99796.70;1717541;83;20196;-61
2021/03/08 12:05:03;;;;;;;;;;;;;;;1.62;57.78;99788.61;1712705;83;20192;-62
2021/03/08 12:07:31;;;;;;;;;;;;;;;1.62;58.48;99799.33;1704620;83;20148;-63
2021/03/08 12:09:58;;;;;;;;;;;;;;;1.61;59.11;99782.23;1717839;83;21223;-61
2021/03/08 12:12:26;;;;;;;;;;;;;;;1.62;59.57;99801.89;1699292;83;20178;-63
2021/03/08 12:14:53;;;;;;;;;;;;;;;1.65;60.04;99800.50;1704005;83;20398;-62
2021/03/08 12:17:21;;;;;;;;;;;;;;;1.67;60.29;99803.85;1708529;83;20237;-61
2021/03/08 12:19:51;;;;;;;;;;;;;;;1.70;60.37;99805.02;1717931;83;20196;-63
2021/03/08 12:22:18;;;;;;;;;;;;;;;1.76;60.52;99803.48;1717212;83;20204;-61
2021/03/08 12:24:46;;;;;;;;;;;;;;;1.80;60.43;99805.05;1701797;83;20215;-62
2021/03/08 12:27:13;;;;;;;;;;;;;;;1.75;59.51;99797.95;1710930;83;20192;-62
2021/03/08 12:29:40;;;;;;;;;;;;;;;1.70;59.70;99807.59;1708254;83;20300;-62
2021/03/08 12:32:08;;;;;;;;;;;;;;;1.64;59.25;99816.80;1718519;83;20303;-59
2021/03/08 12:34:36;;;;;;;;;;;;;;;1.59;58.95;99817.41;1705126;84;20367;-60
2021/03/08 12:37:04;;;;;;;;;;;;;;;1.58;58.56;99804.19;1707940;84;20192;-61
2021/03/08 12:39:32;;;;;;;;;;;;;;;1.61;58.46;99815.19;1690480;84;20712;-61
2021/03/08 12:41:59;;;;;;;;;;;;;;;1.63;58.63;99816.41;1689419;85;20231;-62
2021/03/08 12:44:27;;;;;;;;;;;;;;;1.60;58.67;99812.22;1703837;84;20272;-61
2021/03/08 12:46:54;;;;;;;;;;;;;;;1.57;58.29;99806.36;1711987;84;20179;-63
2021/03/08 12:49:22;;;;;;;;;;;;;;;1.52;58.16;99809.09;1710878;84;20188;-63
2021/03/08 12:51:50;;;;;;;;;;;;;;;1.48;58.23;99828.52;1708262;84;20185;-60
2021/03/08 12:54:17;;;;;;;;;;;;;;;1.47;58.11;99829.41;1705495;84;20175;-62
2021/03/08 12:56:45;;;;;;;;;;;;;;;1.42;57.73;99835.15;1703069;84;20178;-61
2021/03/08 12:59:12;;;;;;;;;;;;;;;1.41;57.69;99836.04;1708543;84;20376;-62
2021/03/08 13:01:39;;;;;;;;;;;;;;;1.46;57.61;99830.30;1688827;84;20165;-61
2021/03/08 13:04:07;;;;;;;;;;;;;;;1.56;57.23;99834.22;1689909;84;20355;-60
2021/03/08 13:06:34;;;;;;;;;;;;;;;1.64;56.30;99825.80;1705540;84;20160;-62
2021/03/08 13:09:04;;;;;;;;;;;;;;;1.68;55.82;99829.93;1711371;84;20418;-62
2021/03/08 13:11:32;;;;;;;;;;;;;;;1.75;55.41;99825.37;1711778;84;20183;-61
2021/03/08 13:13:59;;;;;;;;;;;;;;;1.79;55.22;99835.48;1680731;84;20190;-61
2021/03/08 13:16:26;;;;;;;;;;;;;;;1.84;55.20;99836.16;1697712;84;20177;-61
2021/03/08 13:18:55;;;;;;;;;;;;;;;1.92;54.71;99834.14;1688175;84;20433;-61
2021/03/08 13:21:22;;;;;;;;;;;;;;;2.00;54.78;99838.16;1710077;84;20850;-62